Time,TemperatureF,DewpointF,PressureIn,WindDirection,WindDirectionDegrees,WindSpeedMPH,WindSpeedGustMPH,Humidity,HourlyPrecipIn,Conditions,Clouds,dailyrainin,SoftwareType,DateUTC
2013-09-21 00:00:00,77.5,74.0,29.83,SSE,158,0.0,0.0,89,0.00,CLR,,0.00,WeatherDisplay:10.37,2013-09-21 05:00:00,
2013-09-21 00:05:00,77.5,74.0,29.83,SSE,158,0.0,0.0,89,0.00,CLR,,0.00,WeatherDisplay:10.37,2013-09-21 05:05:00,
2013-09-21 00:10:00,77.5,74.0,29.83,SSE,158,0.0,0.0,89,0.00,CLR,,0.00,WeatherDisplay:10.37,2013-09-21 05:10:00,
2013-09-21 00:15:00,77.5,74.0,29.83,SSE,158,0.0,0.0,89,0.00,CLR,,0.00,WeatherDisplay:10.37,2013-09-21 05:15:00,
2013-09-21 00:20:00,77.5,74.0,29.83,SSE,158,0.0,0.0,89,0.00,CLR,,0.00,WeatherDisplay:10.37,2013-09-21 05:20:00,
2013-09-21 00:25:00,77.5,74.0,29.83,SSE,158,0.0,0.0,89,0.00,CLR,,0.00,WeatherDisplay:10.37,2013-09-21 05:25:00,
2013-09-21 00:30:00,77.5,74.0,29.83,SSE,158,0.0,0.0,89,0.00,CLR,,0.00,WeatherDisplay:10.37,2013-09-21 05:30:00,
2013-09-21 00:35:00,77.5,74.0,29.82,SSE,158,0.0,0.0,89,0.00,CLR,,0.00,WeatherDisplay:10.37,2013-09-21 05:35:00,
2013-09-21 00:40:00,77.5,74.0,29.82,SSE,158,0.0,0.0,89,0.00,CLR,,0.00,WeatherDisplay:10.37,2013-09-21 05:40:00,
2013-09-21 00:45:00,77.5,74.0,29.82,SSE,158,0.0,0.0,89,0.00,CLR,,0.00,WeatherDisplay:10.37,2013-09-21 05:45:00,
2013-09-21 00:50:00,77.5,74.0,29.82,SSE,158,0.0,0.0,89,0.00,CLR,,0.00,WeatherDisplay:10.37,2013-09-21 05:50:00,
2013-09-21 00:55:00,77.5,74.0,29.82,SSE,158,0.0,0.0,89,0.00,CLR,,0.00,WeatherDisplay:10.37,2013-09-21 05:55:00,
2013-09-21 01:00:00,77.5,74.0,29.82,SSE,158,0.0,0.0,89,0.00,CLR,,0.00,WeatherDisplay:10.37,2013-09-21 06:00:00,
2013-09-21 01:05:00,77.5,74.0,29.81,SSE,158,0.0,0.0,89,0.00,CLR,,0.00,WeatherDisplay:10.37,2013-09-21 06:05:00,
2013-09-21 01:10:00,77.4,73.9,29.82,SSE,158,0.0,0.0,89,0.00,CLR,,0.00,WeatherDisplay:10.37,2013-09-21 06:10:00,
2013-09-21 01:15:00,77.4,73.9,29.82,SSE,158,0.0,0.0,89,0.00,CLR,,0.00,WeatherDisplay:10.37,2013-09-21 06:15:00,
2013-09-21 01:20:00,77.2,74.0,29.82,SSE,158,0.0,0.0,90,0.00,CLR,,0.00,WeatherDisplay:10.37,2013-09-21 06:20:00,
2013-09-21 01:25:00,77.2,74.0,29.82,SSE,158,0.0,0.0,90,0.00,CLR,,0.00,WeatherDisplay:10.37,2013-09-21 06:25:00,
2013-09-21 01:30:00,76.8,73.7,29.82,SSE,158,0.0,0.0,90,0.00,CLR,,0.00,WeatherDisplay:10.37,2013-09-21 06:30:00,
2013-09-21 01:35:00,76.8,73.7,29.82,SSE,158,0.0,0.0,90,0.00,CLR,,0.00,WeatherDisplay:10.37,2013-09-21 06:35:00,
2013-09-21 01:40:00,76.8,73.7,29.81,SSE,158,0.0,0.0,90,0.00,CLR,,0.00,WeatherDisplay:10.37,2013-09-21 06:40:00,
2013-09-21 01:45:00,76.8,73.7,29.81,SSE,158,0.0,0.0,90,0.00,CLR,,0.00,WeatherDisplay:10.37,2013-09-21 06:45:00,
2013-09-21 01:50:00,76.8,73.7,29.81,SSE,158,0.0,0.0,90,0.00,CLR,,0.00,WeatherDisplay:10.37,2013-09-21 06:50:00,
2013-09-21 01:55:00,76.8,73.7,29.81,SSE,158,0.0,0.0,90,0.00,CLR,,0.00,WeatherDisplay:10.37,2013-09-21 06:55:00,
2013-09-21 02:00:00,76.8,73.7,29.81,SSE,158,0.0,0.0,90,0.00,CLR,,0.00,WeatherDisplay:10.37,2013-09-21 07:00:00,
2013-09-21 02:05:00,76.8,73.7,29.81,SSE,158,0.0,0.0,90,0.00,CLR,,0.00,WeatherDisplay:10.37,2013-09-21 07:05:00,
2013-09-21 02:10:00,76.8,73.7,29.81,SSE,158,0.0,0.0,90,0.00,CLR,,0.00,WeatherDisplay:10.37,2013-09-21 07:10:00,
2013-09-21 02:15:00,76.8,73.7,29.80,SSE,158,0.0,0.0,90,0.00,CLR,,0.00,WeatherDisplay:10.37,2013-09-21 07:15:00,
2013-09-21 02:20:00,76.8,73.7,29.80,SSE,158,0.0,0.0,90,0.00,CLR,,0.00,WeatherDisplay:10.37,2013-09-21 07:20:00,
2013-09-21 02:25:00,76.8,73.7,29.80,SSE,158,0.0,0.0,90,0.00,CLR,,0.00,WeatherDisplay:10.37,2013-09-21 07:25:00,
2013-09-21 02:30:00,76.8,73.7,29.80,SSE,158,0.0,0.0,90,0.00,CLR,,0.00,WeatherDisplay:10.37,2013-09-21 07:30:00,
2013-09-21 02:35:00,76.8,73.7,29.79,SSE,158,0.0,0.0,90,0.00,CLR,,0.00,WeatherDisplay:10.37,2013-09-21 07:35:00,
2013-09-21 02:40:00,76.8,73.7,29.79,SSE,158,0.0,0.0,90,0.00,CLR,,0.00,WeatherDisplay:10.37,2013-09-21 07:40:00,
2013-09-21 02:45:00,76.8,73.7,29.79,SSE,158,0.0,0.0,90,0.00,CLR,,0.00,WeatherDisplay:10.37,2013-09-21 07:45:00,
2013-09-21 02:50:00,76.8,73.7,29.79,SSE,158,0.0,0.0,90,0.00,CLR,,0.00,WeatherDisplay:10.37,2013-09-21 07:50:00,
2013-09-21 02:55:00,76.8,73.7,29.79,SSE,158,0.0,0.0,90,0.00,CLR,,0.00,WeatherDisplay:10.37,2013-09-21 07:55:00,
2013-09-21 03:00:00,77.0,73.8,29.79,SSE,158,0.0,0.0,90,0.00,CLR,,0.00,WeatherDisplay:10.37,2013-09-21 08:00:00,
2013-09-21 03:05:00,77.0,73.8,29.79,SSE,158,0.0,0.0,90,0.00,CLR,,0.00,WeatherDisplay:10.37,2013-09-21 08:05:00,
2013-09-21 03:10:00,76.8,73.7,29.78,SSE,158,0.0,0.0,90,0.00,CLR,,0.00,WeatherDisplay:10.37,2013-09-21 08:10:00,
2013-09-21 03:15:00,77.0,73.8,29.78,SSE,158,0.0,0.0,90,0.00,CLR,,0.00,WeatherDisplay:10.37,2013-09-21 08:15:00,
2013-09-21 03:20:00,76.8,73.7,29.78,SSE,158,0.0,0.0,90,0.00,CLR,,0.00,WeatherDisplay:10.37,2013-09-21 08:20:00,
2013-09-21 03:25:00,76.8,73.7,29.78,SSE,158,0.0,0.0,90,0.00,CLR,,0.00,WeatherDisplay:10.37,2013-09-21 08:25:00,
2013-09-21 03:30:00,76.8,73.7,29.78,SSE,158,0.0,0.0,90,0.00,CLR,,0.00,WeatherDisplay:10.37,2013-09-21 08:30:00,
2013-09-21 03:35:00,76.8,73.7,29.78,SSE,158,0.0,0.0,90,0.00,CLR,,0.00,WeatherDisplay:10.37,2013-09-21 08:35:00,
2013-09-21 03:40:00,76.8,73.7,29.78,SSE,158,0.0,0.0,90,0.00,CLR,,0.00,WeatherDisplay:10.37,2013-09-21 08:40:00,
2013-09-21 03:45:00,76.8,73.7,29.78,WSW,248,6.9,7.5,90,0.00,CLR,,0.00,WeatherDisplay:10.37,2013-09-21 08:45:00,
2013-09-21 03:50:00,76.8,73.7,29.78,SSE,158,0.0,0.0,90,0.06,RA,,0.06,WeatherDisplay:10.37,2013-09-21 08:50:00,
2013-09-21 03:55:00,76.6,73.5,29.78,SSE,158,4.0,7.9,90,0.10,RA,,0.10,WeatherDisplay:10.37,2013-09-21 08:55:00,
2013-09-21 04:00:00,76.6,73.5,29.78,SSE,158,0.0,0.0,90,0.10,RA,,0.10,WeatherDisplay:10.37,2013-09-21 09:00:00,
2013-09-21 04:05:00,76.6,73.5,29.78,SSE,158,0.0,0.0,90,0.10,CLR,,0.10,WeatherDisplay:10.37,2013-09-21 09:05:00,
2013-09-21 04:10:00,76.6,73.5,29.78,SSE,158,0.0,0.0,90,0.10,CLR,,0.10,WeatherDisplay:10.37,2013-09-21 09:10:00,
2013-09-21 04:15:00,76.1,73.0,29.78,SSE,158,0.0,0.0,90,0.10,CLR,,0.10,WeatherDisplay:10.37,2013-09-21 09:15:00,
2013-09-21 04:20:00,75.9,72.8,29.78,SSE,158,0.0,0.0,90,0.10,CLR,,0.10,WeatherDisplay:10.37,2013-09-21 09:20:00,
2013-09-21 04:25:00,75.9,72.8,29.78,SSE,158,0.0,0.0,90,0.10,CLR,,0.10,WeatherDisplay:10.37,2013-09-21 09:25:00,
2013-09-21 04:30:00,75.9,72.8,29.78,SSE,158,0.0,0.0,90,0.10,CLR,,0.10,WeatherDisplay:10.37,2013-09-21 09:30:00,
2013-09-21 04:35:00,75.9,73.1,29.78,SSE,158,0.0,0.0,91,0.10,CLR,,0.10,WeatherDisplay:10.37,2013-09-21 09:35:00,
2013-09-21 04:40:00,75.9,73.1,29.77,SSE,158,0.0,0.0,91,0.10,CLR,,0.10,WeatherDisplay:10.37,2013-09-21 09:40:00,
2013-09-21 04:45:00,75.9,73.1,29.77,SSE,158,0.0,0.0,91,0.10,CLR,,0.10,WeatherDisplay:10.37,2013-09-21 09:45:00,
2013-09-21 04:50:00,75.9,73.1,29.78,SSE,158,0.0,0.0,91,0.04,CLR,,0.10,WeatherDisplay:10.37,2013-09-21 09:50:00,
2013-09-21 04:55:00,75.9,73.1,29.78,SSE,158,0.0,0.0,91,0.00,CLR,,0.10,WeatherDisplay:10.37,2013-09-21 09:55:00,
2013-09-21 05:00:00,75.9,73.1,29.78,SSE,158,0.0,0.0,91,0.00,CLR,,0.10,WeatherDisplay:10.37,2013-09-21 10:00:00,
2013-09-21 05:05:00,75.9,73.1,29.78,SSE,158,0.0,0.0,91,0.00,CLR,,0.10,WeatherDisplay:10.37,2013-09-21 10:05:00,
2013-09-21 05:10:00,75.9,73.1,29.78,SSE,158,0.0,0.0,91,0.00,CLR,,0.10,WeatherDisplay:10.37,2013-09-21 10:10:00,
2013-09-21 05:15:00,75.9,73.1,29.78,SSE,158,0.0,0.0,91,0.00,CLR,,0.10,WeatherDisplay:10.37,2013-09-21 10:15:00,
2013-09-21 05:20:00,75.9,73.1,29.78,SSE,158,0.0,0.0,91,0.00,CLR,,0.10,WeatherDisplay:10.37,2013-09-21 10:20:00,
2013-09-21 05:25:00,75.9,73.1,29.78,SSE,158,0.0,0.0,91,0.00,CLR,,0.10,WeatherDisplay:10.37,2013-09-21 10:25:00,
2013-09-21 05:30:00,75.9,73.4,29.78,SSE,158,0.0,0.0,92,0.02,RA,,0.12,WeatherDisplay:10.37,2013-09-21 10:30:00,
2013-09-21 05:35:00,75.9,73.4,29.78,SSE,158,0.0,0.0,92,0.02,RA,,0.12,WeatherDisplay:10.37,2013-09-21 10:35:00,
2013-09-21 05:40:00,75.9,73.4,29.78,SSE,158,0.0,0.0,92,0.02,CLR,,0.12,WeatherDisplay:10.37,2013-09-21 10:40:00,
2013-09-21 05:45:00,75.9,73.4,29.78,SSE,158,0.0,0.0,92,0.02,CLR,,0.12,WeatherDisplay:10.37,2013-09-21 10:45:00,
2013-09-21 05:50:00,75.9,73.4,29.78,SSE,158,0.0,0.0,92,0.02,CLR,,0.12,WeatherDisplay:10.37,2013-09-21 10:50:00,
2013-09-21 05:55:00,75.9,73.4,29.78,SSE,158,0.0,0.0,92,0.02,CLR,,0.12,WeatherDisplay:10.37,2013-09-21 10:55:00,
2013-09-21 06:00:00,75.9,73.4,29.78,SSE,158,0.0,0.0,92,0.02,CLR,,0.12,WeatherDisplay:10.37,2013-09-21 11:00:00,
2013-09-21 06:05:00,75.9,73.4,29.78,SSE,158,0.0,0.0,92,0.02,CLR,,0.12,WeatherDisplay:10.37,2013-09-21 11:05:00,
2013-09-21 06:10:00,75.9,73.4,29.78,SSE,158,0.0,0.0,92,0.02,CLR,,0.12,WeatherDisplay:10.37,2013-09-21 11:10:00,
2013-09-21 06:15:00,75.9,73.4,29.78,SSE,158,0.0,0.0,92,0.02,CLR,,0.12,WeatherDisplay:10.37,2013-09-21 11:15:00,
2013-09-21 06:20:00,75.9,73.4,29.78,East,90,0.0,0.0,92,0.02,CLR,,0.12,WeatherDisplay:10.37,2013-09-21 11:20:00,
2013-09-21 06:25:00,75.9,73.4,29.78,East,90,0.0,0.0,92,0.04,RA,,0.14,WeatherDisplay:10.37,2013-09-21 11:25:00,
2013-09-21 06:30:00,75.9,73.4,29.78,East,90,0.0,0.0,92,0.02,RA,,0.14,WeatherDisplay:10.37,2013-09-21 11:30:00,
2013-09-21 06:35:00,75.9,73.4,29.78,East,90,0.0,0.0,92,0.02,CLR,,0.14,WeatherDisplay:10.37,2013-09-21 11:35:00,
2013-09-21 06:40:00,75.9,73.4,29.78,East,90,0.0,0.0,92,0.02,CLR,,0.14,WeatherDisplay:10.37,2013-09-21 11:40:00,
2013-09-21 06:46:00,75.9,73.4,29.78,East,90,0.0,0.0,92,0.02,CLR,,0.14,WeatherDisplay:10.37,2013-09-21 11:46:00,
2013-09-21 06:51:00,75.9,73.4,29.78,East,90,0.0,0.0,92,0.02,CLR,,0.14,WeatherDisplay:10.37,2013-09-21 11:51:00,
2013-09-21 06:56:00,75.9,73.7,29.78,East,90,0.0,0.0,93,0.02,CLR,,0.14,WeatherDisplay:10.37,2013-09-21 11:56:00,
2013-09-21 07:01:00,75.9,73.7,29.78,East,90,0.0,0.0,93,0.02,CLR,,0.14,WeatherDisplay:10.37,2013-09-21 12:01:00,
2013-09-21 07:06:00,75.9,73.7,29.78,East,90,0.0,0.0,93,0.02,CLR,,0.14,WeatherDisplay:10.37,2013-09-21 12:06:00,
2013-09-21 07:11:00,75.9,73.7,29.78,East,90,0.0,0.0,93,0.02,CLR,,0.14,WeatherDisplay:10.37,2013-09-21 12:11:00,
2013-09-21 07:16:00,75.9,73.7,29.78,East,90,0.0,0.0,93,0.02,CLR,,0.14,WeatherDisplay:10.37,2013-09-21 12:16:00,
2013-09-21 07:21:00,75.9,73.7,29.78,East,90,0.0,0.0,93,0.02,CLR,,0.14,WeatherDisplay:10.37,2013-09-21 12:21:00,
2013-09-21 07:26:00,75.9,73.7,29.78,East,90,0.0,0.0,93,0.00,CLR,,0.14,WeatherDisplay:10.37,2013-09-21 12:26:00,
2013-09-21 07:31:00,75.9,73.7,29.78,East,90,0.0,0.0,93,0.00,CLR,,0.14,WeatherDisplay:10.37,2013-09-21 12:31:00,
2013-09-21 07:36:00,75.9,73.4,29.79,East,90,0.0,0.0,92,0.00,CLR,,0.14,WeatherDisplay:10.37,2013-09-21 12:36:00,
2013-09-21 07:41:00,75.9,73.7,29.79,East,90,0.0,0.0,93,0.00,CLR,,0.14,WeatherDisplay:10.37,2013-09-21 12:41:00,
2013-09-21 07:46:00,75.9,73.7,29.78,East,90,0.0,0.0,93,0.00,CLR,,0.14,WeatherDisplay:10.37,2013-09-21 12:46:00,
2013-09-21 07:51:00,75.9,73.7,29.78,East,90,0.0,0.0,93,0.00,CLR,,0.14,WeatherDisplay:10.37,2013-09-21 12:51:00,
2013-09-21 07:56:00,75.9,73.7,29.79,East,90,0.0,0.0,93,0.00,CLR,,0.14,WeatherDisplay:10.37,2013-09-21 12:56:00,
2013-09-21 08:01:00,76.1,73.9,29.79,East,90,0.0,0.0,93,0.00,CLR,,0.14,WeatherDisplay:10.37,2013-09-21 13:01:00,
2013-09-21 08:06:00,76.1,73.9,29.78,East,90,0.0,0.0,93,0.00,CLR,,0.14,WeatherDisplay:10.37,2013-09-21 13:06:00,
2013-09-21 08:11:00,76.1,73.9,29.78,East,90,0.0,0.0,93,0.00,CLR,,0.14,WeatherDisplay:10.37,2013-09-21 13:11:00,
2013-09-21 08:16:00,76.3,74.1,29.78,East,90,0.0,0.0,93,0.00,CLR,,0.14,WeatherDisplay:10.37,2013-09-21 13:16:00,
2013-09-21 08:21:00,76.3,74.1,29.78,East,90,0.0,0.0,93,0.00,CLR,,0.14,WeatherDisplay:10.37,2013-09-21 13:21:00,
2013-09-21 08:26:00,76.3,74.1,29.78,East,90,0.0,0.0,93,0.00,CLR,,0.14,WeatherDisplay:10.37,2013-09-21 13:26:00,
2013-09-21 08:31:00,76.3,74.1,29.79,East,90,0.0,0.0,93,0.00,CLR,,0.14,WeatherDisplay:10.37,2013-09-21 13:31:00,
2013-09-21 08:36:00,76.5,74.3,29.78,East,90,0.0,0.0,93,0.00,CLR,,0.14,WeatherDisplay:10.37,2013-09-21 13:36:00,
2013-09-21 08:41:00,76.5,74.3,29.78,East,90,0.0,0.0,93,0.00,CLR,,0.14,WeatherDisplay:10.37,2013-09-21 13:41:00,
2013-09-21 08:46:00,76.6,74.5,29.78,East,90,0.0,0.0,93,0.00,CLR,,0.14,WeatherDisplay:10.37,2013-09-21 13:46:00,
2013-09-21 08:51:00,76.6,74.5,29.78,East,90,0.0,0.0,93,0.00,CLR,,0.14,WeatherDisplay:10.37,2013-09-21 13:51:00,
2013-09-21 08:56:00,76.6,74.5,29.78,East,90,0.0,0.0,93,0.00,CLR,,0.14,WeatherDisplay:10.37,2013-09-21 13:56:00,
2013-09-21 09:01:00,76.6,74.5,29.79,East,90,0.0,0.0,93,0.00,CLR,,0.14,WeatherDisplay:10.37,2013-09-21 14:01:00,
2013-09-21 09:06:00,76.6,74.5,29.78,East,90,0.0,0.0,93,0.00,CLR,,0.14,WeatherDisplay:10.37,2013-09-21 14:06:00,
2013-09-21 09:11:00,76.6,74.5,29.78,East,90,0.0,0.0,93,0.00,CLR,,0.14,WeatherDisplay:10.37,2013-09-21 14:11:00,
2013-09-21 09:16:00,76.8,74.6,29.79,East,90,0.0,0.0,93,0.00,CLR,,0.14,WeatherDisplay:10.37,2013-09-21 14:16:00,
2013-09-21 09:21:00,76.8,74.6,29.79,East,90,0.0,0.0,93,0.00,CLR,,0.14,WeatherDisplay:10.37,2013-09-21 14:21:00,
2013-09-21 09:26:00,76.8,74.3,29.79,East,90,0.0,0.0,92,0.00,CLR,,0.14,WeatherDisplay:10.37,2013-09-21 14:26:00,
2013-09-21 09:31:00,77.0,74.5,29.79,East,90,0.0,0.0,92,0.00,CLR,,0.14,WeatherDisplay:10.37,2013-09-21 14:31:00,
2013-09-21 09:36:00,77.2,74.7,29.79,East,90,0.0,0.0,92,0.00,CLR,,0.14,WeatherDisplay:10.37,2013-09-21 14:36:00,
2013-09-21 09:41:00,77.2,74.7,29.79,East,90,0.0,0.0,92,0.00,CLR,,0.14,WeatherDisplay:10.37,2013-09-21 14:41:00,
2013-09-21 09:46:00,77.2,74.7,29.79,East,90,0.0,0.0,92,0.00,CLR,,0.14,WeatherDisplay:10.37,2013-09-21 14:46:00,
2013-09-21 09:51:00,77.4,74.9,29.79,East,90,0.0,0.0,92,0.00,CLR,,0.14,WeatherDisplay:10.37,2013-09-21 14:51:00,
2013-09-21 09:56:00,77.5,75.0,29.80,East,90,0.0,0.0,92,0.00,CLR,,0.14,WeatherDisplay:10.37,2013-09-21 14:56:00,
2013-09-21 10:01:00,77.5,75.0,29.80,East,90,0.0,0.0,92,0.00,CLR,,0.14,WeatherDisplay:10.37,2013-09-21 15:01:00,
2013-09-21 10:06:00,77.5,75.0,29.80,East,90,0.0,0.0,92,0.00,CLR,,0.14,WeatherDisplay:10.37,2013-09-21 15:06:00,
2013-09-21 10:11:00,77.5,75.0,29.80,East,90,0.0,0.0,92,0.00,CLR,,0.14,WeatherDisplay:10.37,2013-09-21 15:11:00,
2013-09-21 10:16:00,77.7,75.2,29.79,East,90,0.0,0.0,92,0.00,CLR,,0.14,WeatherDisplay:10.37,2013-09-21 15:16:00,
2013-09-21 10:21:00,77.7,75.2,29.80,East,90,0.0,0.0,92,0.00,CLR,,0.14,WeatherDisplay:10.37,2013-09-21 15:21:00,
2013-09-21 10:26:00,77.9,75.7,29.79,SSE,158,0.0,0.0,93,0.02,RA,,0.16,WeatherDisplay:10.37,2013-09-21 15:26:00,
2013-09-21 10:31:00,77.7,75.2,29.80,NNW,338,0.0,0.0,92,0.14,RA,,0.28,WeatherDisplay:10.37,2013-09-21 15:31:00,
2013-09-21 10:36:00,77.9,75.7,29.79,NNW,338,0.0,0.0,93,0.14,RA,,0.28,WeatherDisplay:10.37,2013-09-21 15:36:00,
2013-09-21 10:41:00,77.9,75.7,29.80,NNW,338,0.0,0.0,93,0.14,CLR,,0.28,WeatherDisplay:10.37,2013-09-21 15:41:00,
2013-09-21 10:46:00,77.9,75.7,29.80,NNW,338,0.0,0.0,93,0.14,CLR,,0.28,WeatherDisplay:10.37,2013-09-21 15:46:00,
2013-09-21 10:51:00,78.1,75.9,29.79,NNW,338,0.0,0.0,93,0.14,CLR,,0.28,WeatherDisplay:10.37,2013-09-21 15:51:00,
2013-09-21 10:56:00,78.4,76.2,29.79,NNW,338,0.0,0.0,93,0.14,CLR,,0.28,WeatherDisplay:10.37,2013-09-21 15:56:00,
2013-09-21 11:01:00,78.4,76.2,29.79,NNW,338,0.0,0.0,93,0.14,CLR,,0.28,WeatherDisplay:10.37,2013-09-21 16:01:00,
2013-09-21 11:06:00,78.6,76.4,29.78,NNW,338,0.0,0.0,93,0.14,CLR,,0.28,WeatherDisplay:10.37,2013-09-21 16:06:00,
2013-09-21 11:11:00,78.6,76.4,29.78,NNW,338,0.0,0.0,93,0.14,CLR,,0.28,WeatherDisplay:10.37,2013-09-21 16:11:00,
2013-09-21 11:16:00,78.8,76.6,29.77,NNW,338,0.0,0.0,93,0.14,CLR,,0.28,WeatherDisplay:10.37,2013-09-21 16:16:00,
2013-09-21 11:21:00,79.0,76.8,29.78,SSE,158,0.0,0.0,93,0.14,CLR,,0.28,WeatherDisplay:10.37,2013-09-21 16:21:00,
2013-09-21 11:26:00,79.2,77.0,29.78,SSE,158,0.0,0.0,93,0.14,RA,,0.30,WeatherDisplay:10.37,2013-09-21 16:26:00,
2013-09-21 11:31:00,79.2,77.0,29.78,WSW,248,1.3,2.6,93,0.06,RA,,0.34,WeatherDisplay:10.37,2013-09-21 16:31:00,
2013-09-21 11:36:00,78.4,75.9,29.78,West,270,0.0,0.0,92,0.14,RA,,0.43,WeatherDisplay:10.37,2013-09-21 16:36:00,
2013-09-21 11:41:00,77.7,74.9,29.77,SW,225,3.5,5.7,91,0.16,RA,,0.45,WeatherDisplay:10.37,2013-09-21 16:41:00,
2013-09-21 11:46:00,77.2,74.3,29.77,East,90,0.0,0.0,91,0.18,RA,,0.47,WeatherDisplay:10.37,2013-09-21 16:46:00,
2013-09-21 11:51:00,76.8,74.0,29.78,WNW,292,0.0,0.0,91,0.18,RA,,0.47,WeatherDisplay:10.37,2013-09-21 16:51:00,
2013-09-21 11:56:00,76.6,73.8,29.78,WSW,248,0.0,0.0,91,0.20,RA,,0.49,WeatherDisplay:10.37,2013-09-21 16:56:00,
2013-09-21 12:01:00,76.6,73.8,29.79,WSW,248,0.0,0.0,91,0.20,RA,,0.49,WeatherDisplay:10.37,2013-09-21 17:01:00,
2013-09-21 12:06:00,76.6,73.8,29.78,WSW,248,0.0,0.0,91,0.20,CLR,,0.49,WeatherDisplay:10.37,2013-09-21 17:06:00,
2013-09-21 12:11:00,76.6,74.1,29.78,WSW,248,0.0,0.0,92,0.20,CLR,,0.49,WeatherDisplay:10.37,2013-09-21 17:11:00,
2013-09-21 12:16:00,76.6,74.1,29.77,West,270,0.0,0.0,92,0.22,RA,,0.51,WeatherDisplay:10.37,2013-09-21 17:16:00,
2013-09-21 12:21:00,76.6,74.1,29.77,West,270,0.0,0.0,92,0.24,RA,,0.53,WeatherDisplay:10.37,2013-09-21 17:21:00,
2013-09-21 12:26:00,76.6,74.1,29.77,West,270,0.0,0.0,92,0.22,RA,,0.53,WeatherDisplay:10.37,2013-09-21 17:26:00,
2013-09-21 12:31:00,76.8,74.3,29.78,West,270,0.0,0.0,92,0.18,CLR,,0.53,WeatherDisplay:10.37,2013-09-21 17:31:00,
2013-09-21 12:36:00,76.8,74.3,29.78,WSW,248,0.0,0.0,92,0.10,CLR,,0.53,WeatherDisplay:10.37,2013-09-21 17:36:00,
2013-09-21 12:41:00,76.8,74.3,29.78,WSW,248,0.0,0.0,92,0.08,CLR,,0.53,WeatherDisplay:10.37,2013-09-21 17:41:00,
2013-09-21 12:46:00,76.8,74.3,29.78,West,270,12.8,25.4,92,0.06,CLR,,0.53,WeatherDisplay:10.37,2013-09-21 17:46:00,
2013-09-21 12:52:00,76.8,74.3,29.78,NW,315,0.0,0.0,92,0.06,CLR,,0.53,WeatherDisplay:10.37,2013-09-21 17:52:00,
2013-09-21 12:57:00,76.8,74.3,29.78,West,270,0.0,0.0,92,0.04,CLR,,0.53,WeatherDisplay:10.37,2013-09-21 17:57:00,
2013-09-21 13:02:00,76.8,74.3,29.77,West,270,0.0,0.0,92,0.04,CLR,,0.53,WeatherDisplay:10.37,2013-09-21 18:02:00,
2013-09-21 13:07:00,77.0,74.5,29.77,West,270,0.0,0.0,92,0.04,CLR,,0.53,WeatherDisplay:10.37,2013-09-21 18:07:00,
2013-09-21 13:12:00,77.0,74.5,29.76,West,270,0.0,0.0,92,0.04,CLR,,0.53,WeatherDisplay:10.37,2013-09-21 18:12:00,
2013-09-21 13:17:00,77.0,74.5,29.76,West,270,0.0,0.0,92,0.02,CLR,,0.53,WeatherDisplay:10.37,2013-09-21 18:17:00,
2013-09-21 13:22:00,77.2,74.7,29.76,WSW,248,0.0,0.0,92,0.00,CLR,,0.53,WeatherDisplay:10.37,2013-09-21 18:22:00,
2013-09-21 13:27:00,77.2,74.7,29.76,NW,315,0.0,0.0,92,0.00,CLR,,0.53,WeatherDisplay:10.37,2013-09-21 18:27:00,
2013-09-21 13:32:00,77.2,74.7,29.76,WNW,292,0.0,0.0,92,0.00,CLR,,0.53,WeatherDisplay:10.37,2013-09-21 18:32:00,
2013-09-21 13:37:00,77.4,74.9,29.77,West,270,0.0,0.0,92,0.00,CLR,,0.53,WeatherDisplay:10.37,2013-09-21 18:37:00,
2013-09-21 13:42:00,77.5,75.0,29.76,West,270,2.3,3.3,92,0.00,CLR,,0.53,WeatherDisplay:10.37,2013-09-21 18:42:00,
2013-09-21 13:47:00,77.7,75.2,29.76,SW,225,0.0,0.0,92,0.00,CLR,,0.53,WeatherDisplay:10.37,2013-09-21 18:47:00,
2013-09-21 13:52:00,77.7,75.2,29.76,WNW,292,0.0,0.0,92,0.00,CLR,,0.53,WeatherDisplay:10.37,2013-09-21 18:52:00,
2013-09-21 13:57:00,77.9,75.4,29.76,WNW,292,0.0,0.0,92,0.00,CLR,,0.53,WeatherDisplay:10.37,2013-09-21 18:57:00,
2013-09-21 14:02:00,77.5,74.7,29.76,WNW,292,0.0,0.0,91,0.00,CLR,,0.53,WeatherDisplay:10.37,2013-09-21 19:02:00,
2013-09-21 14:07:00,77.5,74.7,29.76,WNW,292,0.0,0.0,91,0.00,CLR,,0.53,WeatherDisplay:10.37,2013-09-21 19:07:00,
2013-09-21 14:12:00,77.5,74.7,29.76,West,270,4.6,0.0,91,0.00,CLR,,0.53,WeatherDisplay:10.37,2013-09-21 19:12:00,
2013-09-21 14:17:00,77.5,74.7,29.75,WSW,248,2.3,2.3,91,0.02,RA,,0.55,WeatherDisplay:10.37,2013-09-21 19:17:00,
2013-09-21 14:22:00,77.5,74.7,29.75,West,270,0.0,0.0,91,0.02,RA,,0.55,WeatherDisplay:10.37,2013-09-21 19:22:00,
2013-09-21 14:27:00,77.4,74.5,29.75,SSE,158,0.0,0.0,91,0.02,,,0.55,WeatherDisplay:10.37,2013-09-21 19:27:00,
2013-09-21 14:32:00,77.4,74.5,29.75,SSE,158,0.0,0.0,91,0.02,CLR,,0.55,WeatherDisplay:10.37,2013-09-21 19:32:00,
2013-09-21 14:37:00,77.2,74.3,29.74,SW,225,0.0,0.0,91,0.02,CLR,,0.55,WeatherDisplay:10.37,2013-09-21 19:37:00,
2013-09-21 14:42:00,77.2,74.3,29.75,SW,225,0.0,0.0,91,0.02,CLR,,0.55,WeatherDisplay:10.37,2013-09-21 19:42:00,
2013-09-21 14:47:00,77.2,74.3,29.75,SW,225,0.0,0.0,91,0.02,CLR,,0.55,WeatherDisplay:10.37,2013-09-21 19:47:00,
2013-09-21 14:52:00,77.2,74.3,29.75,SW,225,0.0,0.0,91,0.02,CLR,,0.55,WeatherDisplay:10.37,2013-09-21 19:52:00,
2013-09-21 14:57:00,77.2,74.3,29.74,SW,225,0.0,0.0,91,0.02,CLR,,0.55,WeatherDisplay:10.37,2013-09-21 19:57:00,
2013-09-21 15:02:00,77.2,74.3,29.74,SW,225,0.0,0.0,91,0.02,CLR,,0.55,WeatherDisplay:10.37,2013-09-21 20:02:00,
2013-09-21 15:07:00,77.2,74.3,29.74,SW,225,0.0,0.0,91,0.02,CLR,,0.55,WeatherDisplay:10.37,2013-09-21 20:07:00,
2013-09-21 15:12:00,77.2,74.3,29.74,SW,225,0.0,0.0,91,0.02,CLR,,0.55,WeatherDisplay:10.37,2013-09-21 20:12:00,
2013-09-21 15:17:00,77.2,74.3,29.74,SW,225,0.0,0.0,91,0.00,CLR,,0.55,WeatherDisplay:10.37,2013-09-21 20:17:00,
2013-09-21 15:22:00,77.2,74.3,29.74,West,270,0.0,0.0,91,0.00,CLR,,0.55,WeatherDisplay:10.37,2013-09-21 20:22:00,
2013-09-21 15:27:00,77.2,74.3,29.74,SW,225,0.0,0.0,91,0.00,CLR,,0.55,WeatherDisplay:10.37,2013-09-21 20:27:00,
2013-09-21 15:32:00,77.4,74.5,29.73,SW,225,0.0,0.0,91,0.00,CLR,,0.55,WeatherDisplay:10.37,2013-09-21 20:32:00,
2013-09-21 15:37:00,77.4,74.5,29.74,SW,225,0.0,0.0,91,0.00,CLR,,0.55,WeatherDisplay:10.37,2013-09-21 20:37:00,
2013-09-21 15:42:00,77.4,74.5,29.74,SW,225,0.0,0.0,91,0.00,CLR,,0.55,WeatherDisplay:10.37,2013-09-21 20:42:00,
2013-09-21 15:47:00,77.2,74.3,29.73,WSW,248,0.0,0.0,91,0.00,CLR,,0.55,WeatherDisplay:10.37,2013-09-21 20:47:00,
2013-09-21 15:52:00,77.2,74.3,29.73,WSW,248,0.0,0.0,91,0.00,CLR,,0.55,WeatherDisplay:10.37,2013-09-21 20:52:00,
2013-09-21 15:57:00,77.2,74.3,29.73,WSW,248,0.0,0.0,91,0.00,CLR,,0.55,WeatherDisplay:10.37,2013-09-21 20:57:00,
2013-09-21 16:02:00,77.2,74.3,29.73,WSW,248,0.0,0.0,91,0.00,CLR,,0.55,WeatherDisplay:10.37,2013-09-21 21:02:00,
2013-09-21 16:07:00,77.0,74.2,29.73,WSW,248,0.0,0.0,91,0.00,CLR,,0.55,WeatherDisplay:10.37,2013-09-21 21:07:00,
2013-09-21 16:12:00,77.0,74.2,29.73,WSW,248,0.0,0.0,91,0.02,RA,,0.57,WeatherDisplay:10.37,2013-09-21 21:12:00,
2013-09-21 16:17:00,76.8,74.0,29.72,WSW,248,0.0,0.0,91,0.02,RA,,0.57,WeatherDisplay:10.37,2013-09-21 21:17:00,
2013-09-21 16:22:00,76.8,74.0,29.73,WSW,248,0.0,0.0,91,0.02,CLR,,0.57,WeatherDisplay:10.37,2013-09-21 21:22:00,
2013-09-21 16:27:00,76.8,74.0,29.72,WSW,248,0.0,0.0,91,0.02,CLR,,0.57,WeatherDisplay:10.37,2013-09-21 21:27:00,
2013-09-21 16:32:00,76.8,74.0,29.72,WSW,248,0.0,0.0,91,0.02,CLR,,0.57,WeatherDisplay:10.37,2013-09-21 21:32:00,
2013-09-21 16:37:00,76.8,74.3,29.72,WSW,248,0.0,0.0,92,0.02,CLR,,0.57,WeatherDisplay:10.37,2013-09-21 21:37:00,
2013-09-21 16:42:00,76.8,74.3,29.72,WSW,248,0.0,0.0,92,0.02,CLR,,0.57,WeatherDisplay:10.37,2013-09-21 21:42:00,
2013-09-21 16:49:00,76.8,74.3,29.71,WSW,248,0.0,0.0,92,0.04,RA,,0.59,WeatherDisplay:10.37,2013-09-21 21:49:00,
2013-09-21 16:54:00,76.8,74.3,29.71,WSW,248,0.0,0.0,92,0.06,RA,,0.61,WeatherDisplay:10.37,2013-09-21 21:54:00,
2013-09-21 16:59:00,76.8,74.3,29.71,WSW,248,0.0,0.0,92,0.06,RA,,0.61,WeatherDisplay:10.37,2013-09-21 21:59:00,
2013-09-21 17:04:00,76.8,74.3,29.71,WSW,248,0.0,0.0,92,0.06,CLR,,0.61,WeatherDisplay:10.37,2013-09-21 22:04:00,
2013-09-21 17:09:00,76.8,74.3,29.71,WSW,248,0.0,0.0,92,0.04,CLR,,0.61,WeatherDisplay:10.37,2013-09-21 22:09:00,
2013-09-21 17:14:00,76.8,74.3,29.72,WSW,248,0.0,0.0,92,0.04,CLR,,0.61,WeatherDisplay:10.37,2013-09-21 22:14:00,
2013-09-21 17:19:00,76.6,74.1,29.71,WSW,248,0.0,0.0,92,0.04,CLR,,0.61,WeatherDisplay:10.37,2013-09-21 22:19:00,
2013-09-21 17:24:00,76.6,74.1,29.71,WSW,248,0.0,0.0,92,0.04,CLR,,0.61,WeatherDisplay:10.37,2013-09-21 22:24:00,
2013-09-21 17:29:00,76.6,74.1,29.71,WSW,248,0.0,0.0,92,0.04,CLR,,0.61,WeatherDisplay:10.37,2013-09-21 22:29:00,
2013-09-21 17:34:00,76.5,74.0,29.71,WSW,248,0.0,0.0,92,0.04,CLR,,0.61,WeatherDisplay:10.37,2013-09-21 22:34:00,
2013-09-21 17:39:00,76.5,74.0,29.71,WSW,248,0.0,0.0,92,0.04,CLR,,0.61,WeatherDisplay:10.37,2013-09-21 22:39:00,
2013-09-21 17:44:00,76.5,74.0,29.71,WSW,248,0.0,0.0,92,0.02,CLR,,0.61,WeatherDisplay:10.37,2013-09-21 22:44:00,
2013-09-21 17:49:00,76.5,74.0,29.71,WSW,248,0.0,0.0,92,0.02,CLR,,0.61,WeatherDisplay:10.37,2013-09-21 22:49:00,
2013-09-21 17:54:00,76.3,73.8,29.71,WSW,248,0.0,0.0,92,0.00,CLR,,0.61,WeatherDisplay:10.37,2013-09-21 22:54:00,
2013-09-21 17:59:00,76.3,73.8,29.71,WSW,248,0.0,0.0,92,0.00,CLR,,0.61,WeatherDisplay:10.37,2013-09-21 22:59:00,
2013-09-21 18:04:00,76.3,73.8,29.71,WSW,248,0.0,0.0,92,0.00,CLR,,0.61,WeatherDisplay:10.37,2013-09-21 23:04:00,
2013-09-21 18:09:00,76.3,73.8,29.71,WSW,248,0.0,0.0,92,0.00,CLR,,0.61,WeatherDisplay:10.37,2013-09-21 23:09:00,
2013-09-21 18:14:00,76.3,73.8,29.71,WSW,248,0.0,0.0,92,0.00,CLR,,0.61,WeatherDisplay:10.37,2013-09-21 23:14:00,
2013-09-21 18:19:00,76.3,73.8,29.71,WSW,248,0.0,0.0,92,0.00,CLR,,0.61,WeatherDisplay:10.37,2013-09-21 23:19:00,
2013-09-21 18:24:00,76.3,73.8,29.71,WSW,248,0.0,0.0,92,0.00,CLR,,0.61,WeatherDisplay:10.37,2013-09-21 23:24:00,
2013-09-21 18:29:00,76.3,73.8,29.71,WSW,248,0.0,0.0,92,0.00,CLR,,0.61,WeatherDisplay:10.37,2013-09-21 23:29:00,
2013-09-21 18:34:00,76.3,73.8,29.71,WSW,248,0.0,0.0,92,0.00,CLR,,0.61,WeatherDisplay:10.37,2013-09-21 23:34:00,
2013-09-21 18:39:00,76.3,73.8,29.71,WSW,248,0.0,0.0,92,0.00,CLR,,0.61,WeatherDisplay:10.37,2013-09-21 23:39:00,
2013-09-21 18:44:00,76.1,73.6,29.71,WSW,248,0.0,0.0,92,0.00,CLR,,0.61,WeatherDisplay:10.37,2013-09-21 23:44:00,
2013-09-21 18:49:00,76.1,73.6,29.71,WSW,248,0.0,0.0,92,0.00,CLR,,0.61,WeatherDisplay:10.37,2013-09-21 23:49:00,
2013-09-21 18:54:00,76.1,73.6,29.72,WSW,248,0.0,0.0,92,0.00,CLR,,0.61,WeatherDisplay:10.37,2013-09-21 23:54:00,
2013-09-21 18:59:00,76.1,73.6,29.72,WSW,248,0.0,0.0,92,0.00,CLR,,0.61,WeatherDisplay:10.37,2013-09-21 23:59:00,
2013-09-21 19:04:00,76.1,73.6,29.73,WSW,248,0.0,0.0,92,0.02,RA,,0.63,WeatherDisplay:10.37,2013-09-22 00:04:00,
2013-09-21 19:09:00,75.9,73.4,29.73,WSW,248,0.0,0.0,92,0.02,RA,,0.63,WeatherDisplay:10.37,2013-09-22 00:09:00,
2013-09-21 19:14:00,75.9,73.4,29.73,WSW,248,0.0,0.0,92,0.02,CLR,,0.63,WeatherDisplay:10.37,2013-09-22 00:14:00,
2013-09-21 19:19:00,75.9,73.4,29.73,WSW,248,0.0,0.0,92,0.02,CLR,,0.63,WeatherDisplay:10.37,2013-09-22 00:19:00,
2013-09-21 19:24:00,75.9,73.4,29.73,WSW,248,0.0,0.0,92,0.02,CLR,,0.63,WeatherDisplay:10.37,2013-09-22 00:24:00,
2013-09-21 19:29:00,75.9,73.7,29.73,WSW,248,0.0,0.0,93,0.02,CLR,,0.63,WeatherDisplay:10.37,2013-09-22 00:29:00,
2013-09-21 19:34:00,75.9,73.7,29.73,WSW,248,0.0,0.0,93,0.02,CLR,,0.63,WeatherDisplay:10.37,2013-09-22 00:34:00,
2013-09-21 19:39:00,75.9,73.7,29.73,WSW,248,0.0,0.0,93,0.02,CLR,,0.63,WeatherDisplay:10.37,2013-09-22 00:39:00,
2013-09-21 19:44:00,75.9,73.7,29.73,WSW,248,0.0,0.0,93,0.02,CLR,,0.63,WeatherDisplay:10.37,2013-09-22 00:44:00,
2013-09-21 19:49:00,75.9,73.7,29.73,WSW,248,0.0,0.0,93,0.02,CLR,,0.63,WeatherDisplay:10.37,2013-09-22 00:49:00,
2013-09-21 19:54:00,75.9,73.7,29.73,WSW,248,0.0,0.0,93,0.02,CLR,,0.63,WeatherDisplay:10.37,2013-09-22 00:54:00,
2013-09-21 19:59:00,75.9,73.7,29.73,WSW,248,0.0,0.0,93,0.02,CLR,,0.63,WeatherDisplay:10.37,2013-09-22 00:59:00,
2013-09-21 20:04:00,75.9,73.7,29.73,WSW,248,0.0,0.0,93,0.00,CLR,,0.63,WeatherDisplay:10.37,2013-09-22 01:04:00,
2013-09-21 20:09:00,75.7,73.6,29.73,WSW,248,0.0,0.0,93,0.00,CLR,,0.63,WeatherDisplay:10.37,2013-09-22 01:09:00,
2013-09-21 20:14:00,75.7,73.6,29.74,WSW,248,0.0,0.0,93,0.00,CLR,,0.63,WeatherDisplay:10.37,2013-09-22 01:14:00,
2013-09-21 20:19:00,75.7,73.6,29.74,WSW,248,0.0,0.0,93,0.00,CLR,,0.63,WeatherDisplay:10.37,2013-09-22 01:19:00,
2013-09-21 20:24:00,75.7,73.6,29.74,WSW,248,0.0,0.0,93,0.00,CLR,,0.63,WeatherDisplay:10.37,2013-09-22 01:24:00,
2013-09-21 20:29:00,75.6,73.4,29.74,WSW,248,0.0,0.0,93,0.00,CLR,,0.63,WeatherDisplay:10.37,2013-09-22 01:29:00,
2013-09-21 20:34:00,75.6,73.4,29.74,WSW,248,0.0,0.0,93,0.00,CLR,,0.63,WeatherDisplay:10.37,2013-09-22 01:34:00,
2013-09-21 20:39:00,75.6,73.4,29.74,SW,225,0.0,0.0,93,0.00,CLR,,0.63,WeatherDisplay:10.37,2013-09-22 01:39:00,
2013-09-21 20:44:00,75.6,73.4,29.74,SW,225,0.0,0.0,93,0.00,CLR,,0.63,WeatherDisplay:10.37,2013-09-22 01:44:00,
2013-09-21 20:50:00,75.4,73.2,29.74,SW,225,0.0,0.0,93,0.00,CLR,,0.63,WeatherDisplay:10.37,2013-09-22 01:50:00,
2013-09-21 20:55:00,75.4,73.2,29.75,SW,225,0.0,0.0,93,0.00,CLR,,0.63,WeatherDisplay:10.37,2013-09-22 01:55:00,
2013-09-21 21:00:00,75.4,73.2,29.75,SW,225,0.0,0.0,93,0.00,CLR,,0.63,WeatherDisplay:10.37,2013-09-22 02:00:00,
2013-09-21 21:05:00,75.4,73.2,29.74,SW,225,0.0,0.0,93,0.00,CLR,,0.63,WeatherDisplay:10.37,2013-09-22 02:05:00,
2013-09-21 21:10:00,75.4,73.2,29.74,SW,225,0.0,0.0,93,0.00,CLR,,0.63,WeatherDisplay:10.37,2013-09-22 02:10:00,
2013-09-21 21:15:00,75.4,73.2,29.75,SW,225,0.0,0.0,93,0.00,CLR,,0.63,WeatherDisplay:10.37,2013-09-22 02:15:00,
2013-09-21 21:20:00,75.4,73.2,29.75,SW,225,0.0,0.0,93,0.00,CLR,,0.63,WeatherDisplay:10.37,2013-09-22 02:20:00,
2013-09-21 21:25:00,75.4,73.2,29.75,SW,225,0.0,0.0,93,0.00,CLR,,0.63,WeatherDisplay:10.37,2013-09-22 02:25:00,
2013-09-21 21:30:00,75.4,73.2,29.75,SW,225,0.0,0.0,93,0.00,CLR,,0.63,WeatherDisplay:10.37,2013-09-22 02:30:00,
2013-09-21 21:35:00,75.4,73.2,29.75,SW,225,0.0,0.0,93,0.00,CLR,,0.63,WeatherDisplay:10.37,2013-09-22 02:35:00,
2013-09-21 21:40:00,75.4,73.2,29.75,SW,225,0.0,0.0,93,0.00,CLR,,0.63,WeatherDisplay:10.37,2013-09-22 02:40:00,
2013-09-21 21:45:00,75.4,73.2,29.75,SW,225,0.0,0.0,93,0.02,RA,,0.65,WeatherDisplay:10.37,2013-09-22 02:45:00,
2013-09-21 21:50:00,75.4,73.2,29.75,SW,225,0.0,0.0,93,0.02,RA,,0.65,WeatherDisplay:10.37,2013-09-22 02:50:00,
2013-09-21 21:55:00,75.4,73.2,29.74,SW,225,0.0,0.0,93,0.04,RA,,0.67,WeatherDisplay:10.37,2013-09-22 02:55:00,
2013-09-21 22:01:00,75.4,73.2,29.74,SW,225,0.0,0.0,93,0.04,RA,,0.67,WeatherDisplay:10.37,2013-09-22 03:01:00,
2013-09-21 22:06:00,75.2,73.0,29.74,SW,225,0.0,0.0,93,0.04,CLR,,0.67,WeatherDisplay:10.37,2013-09-22 03:06:00,
2013-09-21 22:11:00,75.0,72.9,29.74,SW,225,0.0,0.0,93,0.04,CLR,,0.67,WeatherDisplay:10.37,2013-09-22 03:11:00,
2013-09-21 22:16:00,75.0,72.5,29.74,SW,225,0.0,0.0,92,0.04,CLR,,0.67,WeatherDisplay:10.37,2013-09-22 03:16:00,
2013-09-21 22:21:00,75.2,73.0,29.74,SW,225,0.0,0.0,93,0.04,CLR,,0.67,WeatherDisplay:10.37,2013-09-22 03:21:00,
2013-09-21 22:26:00,75.2,73.0,29.74,SW,225,0.0,0.0,93,0.04,CLR,,0.67,WeatherDisplay:10.37,2013-09-22 03:26:00,
2013-09-21 22:31:00,75.2,73.0,29.74,SW,225,0.0,0.0,93,0.04,CLR,,0.67,WeatherDisplay:10.37,2013-09-22 03:31:00,
2013-09-21 22:36:00,75.0,72.9,29.74,SW,225,0.0,0.0,93,0.04,CLR,,0.67,WeatherDisplay:10.37,2013-09-22 03:36:00,
2013-09-21 22:41:00,75.0,72.9,29.74,SW,225,0.0,0.0,93,0.04,CLR,,0.67,WeatherDisplay:10.37,2013-09-22 03:41:00,
2013-09-21 22:46:00,75.0,72.9,29.74,SW,225,0.0,0.0,93,0.02,CLR,,0.67,WeatherDisplay:10.37,2013-09-22 03:46:00,
2013-09-21 22:51:00,74.8,72.7,29.74,SW,225,0.0,0.0,93,0.02,CLR,,0.67,WeatherDisplay:10.37,2013-09-22 03:51:00,
2013-09-21 22:56:00,74.8,72.7,29.74,SW,225,0.0,0.0,93,0.00,CLR,,0.67,WeatherDisplay:10.37,2013-09-22 03:56:00,
2013-09-21 23:01:00,74.8,72.7,29.75,SW,225,0.0,0.0,93,0.00,CLR,,0.67,WeatherDisplay:10.37,2013-09-22 04:01:00,
2013-09-21 23:02:00,74.8,72.7,29.75,SW,225,0.0,0.0,93,0.00,CLR,,0.67,WeatherDisplay:10.37,2013-09-22 04:02:00,
2013-09-21 23:04:00,74.7,72.5,29.75,SW,225,0.0,0.0,93,0.00,CLR,,0.67,WeatherDisplay:10.37,2013-09-22 04:04:00,
2013-09-21 23:06:00,74.7,72.5,29.75,SW,225,0.0,0.0,93,0.00,CLR,,0.67,WeatherDisplay:10.37,2013-09-22 04:06:00,
2013-09-21 23:07:00,74.7,72.5,29.75,SW,225,0.0,0.0,93,0.00,CLR,,0.67,WeatherDisplay:10.37,2013-09-22 04:07:00,
2013-09-21 23:12:00,74.5,72.3,29.74,SW,225,0.0,0.0,93,0.00,CLR,,0.67,WeatherDisplay:10.37,2013-09-22 04:12:00,
2013-09-21 23:18:00,74.5,72.3,29.74,SW,225,0.0,0.0,93,0.00,CLR,,0.67,WeatherDisplay:10.37,2013-09-22 04:18:00,
2013-09-21 23:23:00,74.5,72.3,29.74,SW,225,0.0,0.0,93,0.00,CLR,,0.67,WeatherDisplay:10.37,2013-09-22 04:23:00,
2013-09-21 23:28:00,74.5,72.3,29.75,SW,225,0.0,0.0,93,0.00,CLR,,0.67,WeatherDisplay:10.37,2013-09-22 04:28:00,
2013-09-21 23:33:00,74.5,72.3,29.75,SW,225,0.0,0.0,93,0.00,CLR,,0.67,WeatherDisplay:10.37,2013-09-22 04:33:00,
2013-09-21 23:38:00,74.3,72.1,29.75,SW,225,0.0,0.0,93,0.00,CLR,,0.67,WeatherDisplay:10.37,2013-09-22 04:38:00,
2013-09-21 23:43:00,74.3,72.1,29.75,SW,225,0.0,0.0,93,0.00,CLR,,0.67,WeatherDisplay:10.37,2013-09-22 04:43:00,
2013-09-21 23:48:00,74.3,72.1,29.75,SW,225,0.0,0.0,93,0.00,CLR,,0.67,WeatherDisplay:10.37,2013-09-22 04:48:00,
2013-09-21 23:53:00,74.3,72.1,29.75,SW,225,0.0,0.0,93,0.00,CLR,,0.67,WeatherDisplay:10.37,2013-09-22 04:53:00,
2013-09-21 23:58:00,74.1,72.0,29.75,ENE,68,0.0,0.0,93,0.00,CLR,,0.67,WeatherDisplay:10.37,2013-09-22 04:58:00,